Portada
METAR-TAF:

METAR-TAF

Aeroports :

Kashgar, Xina

latitud: 39-28N, longitud: 075-59E, altitud: 1291 m

Observació

L'informe es va fer fa 1 hora i 5 minuts, a les 03:00 UTC
Vent 8 kt del Nord-Oest
Temperatura -2°C
Humitat 43%
Pressió 1033 hPa
Visibilitat: 4000 m
Pols estès

METAR: ZWSH 200300Z 31004MPS 4000 DU NSC M02/M13 Q1033 NOSIG

Hora: 12:05 (04:05 UTC)

Pronòstic

L'informe es va fer fa 6 hores i 53 minuts, a les 21:12 UTC
Pronòstic vàlid del 20 a les 00 UTC al 20 a les 24 UTC
Vent 10 kt del Nord/Nord-Oest
Visibilitat: 4000 m
Pols estès
Evolucionant progressivament
l' 20 a les 05 UTC al 20 a les 06 UTC
Vent 8 kt del Est
Evolucionant progressivament
l' 20 a les 14 UTC al 20 a les 15 UTC
Vent 10 kt del Nord

TAF: ZWSH 192112Z 2000/2024 34005MPS 4000 DU NSC TX06/2009Z TNM05/2001Z BECMG 2005/2006 08004MPS BECMG 2014/2015 35005MPS

Observacions i pronòstics meteorològics de més de 4000 aeroports (METAR i TAF).

Les estacions disponibles són els punts grocs i vermells al mapa.

Posi el ratolí al punt desitjat per veure el nom de l'estació.

Feu clic per veure les observacions i els pronòstics meteorològics.

Per canviar el mapa: feu clic els botons verds amb una creu de color negre per apropar; al botó verd amb un guió per allunyar la imatge; o en les fletxes verdes per a mapes adjacents.


METAR-TAF: